createdAt,value
2023-04-09T00:02:27.690Z,82.50
2023-04-09T00:04:56.045Z,82.60
2023-04-09T00:07:24.341Z,82.60
2023-04-09T00:09:53.931Z,82.30
2023-04-09T00:12:22.141Z,82.30
2023-04-09T00:14:50.400Z,82.30
2023-04-09T00:17:18.639Z,82.50
2023-04-09T00:19:46.811Z,82.40
2023-04-09T00:22:15.067Z,82.60
2023-04-09T00:24:43.359Z,82.40
2023-04-09T00:27:13.012Z,82.50
2023-04-09T00:29:41.216Z,82.50
2023-04-09T00:32:09.493Z,82.40
2023-04-09T00:34:38.760Z,82.50
2023-04-09T00:37:07.262Z,82.50
2023-04-09T00:39:35.458Z,82.40
2023-04-09T00:42:03.794Z,82.80
2023-04-09T00:44:33.378Z,82.70
2023-04-09T00:47:01.784Z,82.70
2023-04-09T00:49:30.485Z,82.80
2023-04-09T00:51:58.895Z,82.60
2023-04-09T00:54:27.158Z,82.50
2023-04-09T00:56:56.711Z,82.60
2023-04-09T00:59:26.954Z,82.50
2023-04-09T01:01:56.623Z,82.30
2023-04-09T01:04:25.915Z,82.60
2023-04-09T01:07:00.444Z,82.60
2023-04-09T01:09:35.092Z,82.80
2023-04-09T01:12:13.424Z,82.60
2023-04-09T01:14:51.093Z,82.60
2023-04-09T01:17:27.256Z,82.80
2023-04-09T01:20:04.160Z,82.90
2023-04-09T01:22:43.356Z,83.10
2023-04-09T01:25:30.681Z,83.10
2023-04-09T01:28:16.518Z,83.00
2023-04-09T01:30:49.685Z,83.20
2023-04-09T01:33:21.409Z,83.30
2023-04-09T01:35:51.189Z,83.50
2023-04-09T01:38:22.233Z,83.60
2023-04-09T01:40:51.959Z,83.70
2023-04-09T01:43:22.297Z,83.70
2023-04-09T01:45:51.185Z,83.60
2023-04-09T01:48:20.956Z,83.50
2023-04-09T01:50:49.480Z,83.70
2023-04-09T01:53:18.070Z,83.60
2023-04-09T01:55:46.344Z,83.90
2023-04-09T01:58:15.722Z,83.80
2023-04-09T02:00:49.090Z,84.00
2023-04-09T02:03:23.722Z,84.20
2023-04-09T02:05:58.930Z,84.00
2023-04-09T02:08:30.288Z,84.20
2023-04-09T02:11:01.833Z,84.00
2023-04-09T02:13:30.858Z,84.00
2023-04-09T02:16:01.710Z,83.90
2023-04-09T02:18:32.729Z,84.00
2023-04-09T02:21:01.747Z,84.10
2023-04-09T02:23:30.199Z,84.00
2023-04-09T02:25:58.464Z,84.20
2023-04-09T02:28:26.675Z,84.10
2023-04-09T02:30:54.944Z,83.90
2023-04-09T02:33:24.560Z,84.20
2023-04-09T02:35:52.876Z,84.20
2023-04-09T02:38:21.142Z,84.40
2023-04-09T02:40:49.360Z,84.40
2023-04-09T02:43:17.565Z,84.40
2023-04-09T02:45:45.832Z,84.50
2023-04-09T02:48:14.093Z,84.60
2023-04-09T02:50:43.738Z,84.60
2023-04-09T02:53:12.023Z,84.80
2023-04-09T02:55:40.258Z,84.80
2023-04-09T02:58:08.484Z,84.80
2023-04-09T03:00:36.847Z,85.20
2023-04-09T03:03:05.418Z,85.00
2023-04-09T03:05:33.833Z,85.20
2023-04-09T03:08:03.533Z,85.20
2023-04-09T03:10:31.778Z,85.30
2023-04-09T03:12:59.991Z,85.30
2023-04-09T03:15:28.317Z,85.30
2023-04-09T03:17:56.593Z,85.30
2023-04-09T03:20:24.823Z,85.30
2023-04-09T03:22:53.134Z,85.20
2023-04-09T03:25:22.977Z,85.20
2023-04-09T03:27:51.201Z,85.50
2023-04-09T03:30:19.382Z,85.50
2023-04-09T03:32:47.678Z,85.70
2023-04-09T03:35:15.935Z,85.70
2023-04-09T03:37:44.153Z,85.90
2023-04-09T03:40:14.104Z,85.50
2023-04-09T03:42:45.429Z,85.50
2023-04-09T03:45:13.693Z,85.70
2023-04-09T03:47:41.956Z,85.70
2023-04-09T03:50:11.447Z,85.80
2023-04-09T03:52:39.683Z,85.90
2023-04-09T03:55:10.025Z,85.90
2023-04-09T03:57:38.257Z,86.00
2023-04-09T04:00:09.529Z,86.00
2023-04-09T04:02:37.994Z,86.00
2023-04-09T04:05:07.265Z,86.00
2023-04-09T04:07:35.845Z,85.50
2023-04-09T04:10:06.256Z,85.70
2023-04-09T04:12:34.524Z,85.80
2023-04-09T04:15:03.052Z,85.90
2023-04-09T04:17:32.751Z,85.10
2023-04-09T04:20:01.204Z,85.00
2023-04-09T04:22:29.505Z,85.20
2023-04-09T04:24:57.887Z,85.50
2023-04-09T04:27:26.111Z,85.30
2023-04-09T04:29:54.320Z,85.10
2023-04-09T04:32:22.669Z,85.10
2023-04-09T04:34:52.283Z,85.30
2023-04-09T04:37:20.597Z,85.60
2023-04-09T04:39:48.866Z,85.80
2023-04-09T04:42:17.177Z,86.00
2023-04-09T04:44:45.582Z,86.20
2023-04-09T04:47:13.918Z,86.20
2023-04-09T04:49:42.214Z,86.60
2023-04-09T04:52:11.925Z,86.60
2023-04-09T04:54:40.487Z,86.50
2023-04-09T04:57:08.839Z,86.60
2023-04-09T04:59:38.829Z,86.70
2023-04-09T05:02:07.158Z,86.70
2023-04-09T05:04:35.801Z,86.70
2023-04-09T05:07:04.049Z,86.80
2023-04-09T05:09:33.713Z,86.90
2023-04-09T05:12:02.479Z,86.80
2023-04-09T05:14:30.731Z,86.90
2023-04-09T05:16:59.132Z,86.80
2023-04-09T05:19:27.366Z,86.90
2023-04-09T05:21:55.585Z,87.20
2023-04-09T05:24:23.870Z,87.40
2023-04-09T05:26:53.518Z,87.40
2023-04-09T05:29:22.002Z,87.60
2023-04-09T05:31:50.270Z,87.90
2023-04-09T05:34:18.460Z,88.10
2023-04-09T05:36:46.652Z,88.10
2023-04-09T05:39:14.916Z,88.30
2023-04-09T05:41:44.910Z,88.40
2023-04-09T05:44:14.528Z,88.60
2023-04-09T05:46:42.893Z,88.70
2023-04-09T05:49:11.548Z,88.40
2023-04-09T05:51:39.885Z,88.50
2023-04-09T05:54:08.163Z,88.40
2023-04-09T05:56:36.502Z,88.40
2023-04-09T05:59:04.978Z,88.50
2023-04-09T06:01:34.605Z,88.50
2023-04-09T06:04:03.396Z,88.20
2023-04-09T06:06:32.642Z,87.90
2023-04-09T06:09:00.905Z,87.70
2023-04-09T06:11:29.154Z,87.40
2023-04-09T06:13:57.765Z,87.00
2023-04-09T06:16:26.256Z,86.60
2023-04-09T06:18:57.009Z,86.70
2023-04-09T06:21:25.274Z,86.50
2023-04-09T06:23:54.274Z,86.10
2023-04-09T06:26:23.214Z,85.80
2023-04-09T06:28:52.595Z,85.30
2023-04-09T06:31:21.094Z,85.50
2023-04-09T06:33:49.384Z,85.00
2023-04-09T06:36:18.963Z,85.10
2023-04-09T06:38:47.536Z,84.40
2023-04-09T06:41:15.729Z,84.40
2023-04-09T06:43:43.933Z,84.20
2023-04-09T06:46:13.734Z,84.00
2023-04-09T06:48:42.524Z,83.20
2023-04-09T06:51:10.854Z,83.10
2023-04-09T06:53:41.213Z,83.20
2023-04-09T06:56:09.719Z,83.20
2023-04-09T06:58:38.129Z,82.60
2023-04-09T07:01:07.023Z,82.30
2023-04-09T07:03:35.546Z,82.70
2023-04-09T07:06:03.923Z,81.60
2023-04-09T07:08:32.215Z,82.30
2023-04-09T07:11:02.006Z,81.30
2023-04-09T07:13:31.292Z,81.10
2023-04-09T07:15:59.576Z,79.70
2023-04-09T07:18:28.265Z,79.10
2023-04-09T07:20:56.576Z,78.70
2023-04-09T07:23:24.832Z,78.00
2023-04-09T07:25:53.429Z,78.30
2023-04-09T07:28:23.021Z,78.10
2023-04-09T07:30:51.386Z,75.70
2023-04-09T07:33:19.643Z,75.80
2023-04-09T07:35:47.959Z,74.90
2023-04-09T07:38:16.309Z,74.20
2023-04-09T07:40:44.613Z,74.50
2023-04-09T07:43:12.832Z,73.20
2023-04-09T07:45:42.494Z,73.30
2023-04-09T07:48:10.952Z,73.00
2023-04-09T07:50:39.292Z,73.30
2023-04-09T07:53:07.568Z,72.50
2023-04-09T07:55:35.889Z,71.10
2023-04-09T07:58:05.392Z,70.20
2023-04-09T08:00:33.716Z,69.40
2023-04-09T08:03:04.165Z,71.40
2023-04-09T08:05:32.664Z,70.30
2023-04-09T08:08:01.075Z,71.30
2023-04-09T08:10:29.369Z,69.70
2023-04-09T08:12:57.609Z,69.60
2023-04-09T08:15:25.894Z,69.30
2023-04-09T08:17:54.218Z,69.60
2023-04-09T08:20:24.196Z,69.70
2023-04-09T08:22:52.517Z,70.90
2023-04-09T08:25:21.011Z,68.50
2023-04-09T08:27:49.211Z,68.50
2023-04-09T08:30:18.917Z,68.40
2023-04-09T08:32:47.312Z,68.30
2023-04-09T08:35:15.974Z,68.70
2023-04-09T08:37:45.683Z,68.30
2023-04-09T08:40:14.438Z,67.20
2023-04-09T08:42:46.483Z,67.80
2023-04-09T08:45:15.051Z,65.80
2023-04-09T08:47:44.967Z,67.00
2023-04-09T08:50:14.927Z,65.30
2023-04-09T08:52:45.570Z,64.90
2023-04-09T08:55:14.047Z,66.00
2023-04-09T08:57:42.678Z,64.90
2023-04-09T09:00:12.756Z,66.10
2023-04-09T09:03:06.361Z,64.10
2023-04-09T09:05:39.759Z,63.60
2023-04-09T09:08:10.150Z,65.90
2023-04-09T09:10:43.304Z,64.10
2023-04-09T09:13:24.582Z,63.00
2023-04-09T09:15:55.365Z,61.80
2023-04-09T09:18:40.458Z,61.70
2023-04-09T09:21:12.826Z,61.50
2023-04-09T09:23:42.409Z,61.40
2023-04-09T09:26:16.502Z,61.60
2023-04-09T09:28:45.159Z,62.10
2023-04-09T09:31:14.707Z,61.80
2023-04-09T09:33:44.692Z,59.90
2023-04-09T09:36:13.124Z,58.70
2023-04-09T09:38:56.269Z,61.80
2023-04-09T09:41:25.955Z,62.40
2023-04-09T09:43:54.343Z,63.30
2023-04-09T09:46:24.176Z,60.90
2023-04-09T09:48:54.483Z,62.70
2023-04-09T09:51:28.775Z,60.80
2023-04-09T09:53:58.304Z,60.50
2023-04-09T09:56:32.786Z,60.70
2023-04-09T09:59:12.906Z,59.80
2023-04-09T10:01:42.376Z,59.90
2023-04-09T10:04:16.421Z,60.70
2023-04-09T10:06:46.152Z,61.20
2023-04-09T10:09:14.959Z,60.00
2023-04-09T10:11:45.591Z,60.70
2023-04-09T10:14:15.411Z,59.70
2023-04-09T10:16:44.209Z,60.70
2023-04-09T10:19:15.163Z,61.00
2023-04-09T10:21:47.613Z,61.10
2023-04-09T10:24:17.502Z,59.80
2023-04-09T10:26:46.868Z,54.00
2023-04-09T10:29:17.133Z,56.70
2023-04-09T10:31:53.087Z,60.10
2023-04-09T10:34:25.671Z,57.80
2023-04-09T10:36:58.131Z,58.30
2023-04-09T10:39:29.770Z,57.00
2023-04-09T10:41:59.576Z,56.80
2023-04-09T10:44:31.780Z,55.60
2023-04-09T10:47:00.601Z,56.40
2023-04-09T10:49:38.761Z,57.50
2023-04-09T10:52:11.975Z,55.90
2023-04-09T10:54:46.670Z,53.70
2023-04-09T10:57:21.523Z,53.00
2023-04-09T10:59:52.571Z,54.10
2023-04-09T11:03:22.083Z,52.70
2023-04-09T11:05:56.694Z,52.60
2023-04-09T11:08:25.129Z,53.70
2023-04-09T11:10:58.264Z,50.50
2023-04-09T11:13:26.741Z,52.40
2023-04-09T11:15:56.663Z,49.70
2023-04-09T11:18:27.017Z,49.90
2023-04-09T11:21:02.036Z,51.30
2023-04-09T11:23:30.650Z,49.40
2023-04-09T11:25:58.968Z,50.30
2023-04-09T11:28:28.636Z,50.50
2023-04-09T11:30:56.896Z,48.60
2023-04-09T11:33:33.115Z,50.50
2023-04-09T11:36:03.805Z,49.20
2023-04-09T11:38:33.143Z,50.40
2023-04-09T11:41:02.907Z,49.20
2023-04-09T11:43:31.078Z,48.00
2023-04-09T11:46:00.230Z,47.80
2023-04-09T11:48:28.704Z,47.80
2023-04-09T11:50:57.135Z,48.90
2023-04-09T11:53:32.359Z,48.50
2023-04-09T11:56:02.974Z,47.60
2023-04-09T11:58:32.173Z,46.00
2023-04-09T12:01:00.864Z,45.30
2023-04-09T12:03:32.428Z,45.30
2023-04-09T12:06:03.124Z,46.40
2023-04-09T12:08:35.625Z,46.30
2023-04-09T12:11:11.571Z,47.50
2023-04-09T12:13:43.329Z,48.30
2023-04-09T12:16:12.459Z,45.60
2023-04-09T12:18:41.488Z,45.30
2023-04-09T12:21:09.786Z,46.50
2023-04-09T12:23:39.674Z,47.40
2023-04-09T12:26:08.150Z,45.50
2023-04-09T12:28:36.456Z,47.20
2023-04-09T12:31:04.706Z,47.20
2023-04-09T12:33:34.026Z,47.00
2023-04-09T12:36:02.560Z,45.60
2023-04-09T12:38:31.119Z,47.60
2023-04-09T12:41:01.269Z,45.80
2023-04-09T12:43:29.661Z,46.70
2023-04-09T12:45:58.043Z,48.00
2023-04-09T12:48:26.808Z,47.30
2023-04-09T12:50:55.071Z,48.20
2023-04-09T12:53:23.472Z,47.80
2023-04-09T12:55:51.818Z,50.10
2023-04-09T12:58:21.513Z,48.10
2023-04-09T13:00:49.780Z,47.50
2023-04-09T13:03:18.253Z,46.70
2023-04-09T13:05:47.217Z,47.10
2023-04-09T13:08:16.270Z,47.80
2023-04-09T13:10:44.590Z,49.10
2023-04-09T13:13:13.076Z,47.40
2023-04-09T13:15:45.060Z,47.30
2023-04-09T13:18:14.273Z,48.20
2023-04-09T13:20:42.583Z,49.20
2023-04-09T13:23:10.893Z,49.20
2023-04-09T13:25:39.148Z,47.30
2023-04-09T13:28:07.421Z,47.60
2023-04-09T13:30:36.093Z,48.70
2023-04-09T13:33:05.889Z,48.20
2023-04-09T13:35:34.504Z,48.30
2023-04-09T13:38:02.797Z,49.60
2023-04-09T13:40:31.079Z,48.60
2023-04-09T13:42:59.392Z,48.20
2023-04-09T13:45:27.725Z,46.70
2023-04-09T13:47:55.993Z,47.00
2023-04-09T13:50:26.370Z,47.80
2023-04-09T13:52:54.710Z,47.60
2023-04-09T13:55:23.081Z,47.50
2023-04-09T13:57:51.366Z,47.60
2023-04-09T14:00:20.782Z,49.10
2023-04-09T14:02:49.081Z,49.70
2023-04-09T14:05:17.737Z,49.40
2023-04-09T14:07:47.712Z,48.30
2023-04-09T14:10:16.041Z,47.80
2023-04-09T14:12:44.363Z,48.40
2023-04-09T14:15:12.833Z,48.60
2023-04-09T14:17:41.425Z,48.10
2023-04-09T14:20:10.464Z,48.90
2023-04-09T14:22:38.932Z,49.20
2023-04-09T14:25:10.102Z,48.20
2023-04-09T14:27:39.064Z,49.00
2023-04-09T14:30:11.011Z,49.70
2023-04-09T14:32:39.299Z,46.10
2023-04-09T14:35:08.223Z,46.00
2023-04-09T14:37:37.653Z,47.30
2023-04-09T14:40:08.743Z,47.10
2023-04-09T14:42:36.851Z,47.50
2023-04-09T14:45:05.921Z,47.10
2023-04-09T14:47:34.274Z,47.10
2023-04-09T14:50:02.499Z,47.60
2023-04-09T14:52:30.973Z,46.90
2023-04-09T14:54:59.178Z,47.00
2023-04-09T14:57:28.885Z,46.60
2023-04-09T14:59:57.196Z,47.20
2023-04-09T15:02:25.666Z,48.50
2023-04-09T15:04:54.195Z,48.10
2023-04-09T15:07:25.008Z,48.50
2023-04-09T15:09:53.391Z,49.00
2023-04-09T15:12:21.694Z,48.90
2023-04-09T15:14:51.338Z,49.00
2023-04-09T15:17:19.676Z,49.90
2023-04-09T15:19:48.299Z,49.10
2023-04-09T15:22:16.827Z,49.00
2023-04-09T15:24:45.111Z,49.40
2023-04-09T15:27:13.414Z,48.60
2023-04-09T15:29:41.661Z,49.80
2023-04-09T15:32:11.437Z,49.30
2023-04-09T15:34:39.705Z,49.00
2023-04-09T15:37:07.990Z,49.60
2023-04-09T15:39:36.380Z,50.20
2023-04-09T15:42:04.796Z,50.60
2023-04-09T15:44:33.068Z,50.40
2023-04-09T15:47:01.298Z,50.50
2023-04-09T15:49:30.981Z,50.10
2023-04-09T15:51:59.169Z,49.60
2023-04-09T15:54:27.453Z,50.90
2023-04-09T15:56:55.666Z,49.90
2023-04-09T15:59:23.978Z,49.40
2023-04-09T16:01:52.277Z,49.90
2023-04-09T16:04:20.909Z,50.80
2023-04-09T16:06:50.606Z,49.70
2023-04-09T16:09:18.928Z,50.90
2023-04-09T16:11:47.348Z,49.00
2023-04-09T16:14:15.683Z,50.40
2023-04-09T16:16:47.135Z,50.30
2023-04-09T16:19:15.879Z,49.60
2023-04-09T16:21:45.483Z,49.30
2023-04-09T16:24:16.389Z,50.90
2023-04-09T16:26:46.560Z,50.30
2023-04-09T16:29:16.361Z,50.50
2023-04-09T16:31:44.727Z,50.40
2023-04-09T16:34:13.119Z,49.70
2023-04-09T16:36:41.710Z,49.20
2023-04-09T16:39:10.982Z,49.70
2023-04-09T16:41:40.654Z,50.30
2023-04-09T16:44:08.881Z,49.80
2023-04-09T16:46:37.152Z,49.80
2023-04-09T16:49:05.445Z,50.10
2023-04-09T16:51:33.764Z,50.50
2023-04-09T16:54:02.046Z,50.30
2023-04-09T16:56:32.947Z,51.40
2023-04-09T16:59:02.647Z,50.40
2023-04-09T17:01:31.493Z,50.90
2023-04-09T17:04:00.774Z,51.50
2023-04-09T17:06:29.435Z,51.90
2023-04-09T17:08:57.969Z,51.70
2023-04-09T17:11:26.507Z,51.40
2023-04-09T17:13:55.545Z,51.90
2023-04-09T17:16:25.613Z,52.50
2023-04-09T17:18:54.425Z,52.30
2023-04-09T17:21:22.757Z,52.80
2023-04-09T17:23:51.090Z,52.60
2023-04-09T17:26:20.724Z,52.60
2023-04-09T17:28:49.045Z,52.00
2023-04-09T17:31:17.799Z,52.40
2023-04-09T17:33:48.748Z,53.10
2023-04-09T17:36:19.535Z,52.30
2023-04-09T17:38:48.408Z,51.70
2023-04-09T17:41:16.703Z,52.60
2023-04-09T17:43:44.998Z,53.40
2023-04-09T17:46:13.270Z,52.30
2023-04-09T17:48:42.261Z,53.10
2023-04-09T17:51:16.374Z,53.10
2023-04-09T17:53:44.798Z,54.10
2023-04-09T17:56:17.596Z,53.60
2023-04-09T17:58:46.522Z,53.90
2023-04-09T18:01:14.941Z,53.80
2023-04-09T18:03:45.728Z,54.00
2023-04-09T18:06:17.378Z,53.90
2023-04-09T18:08:45.674Z,54.30
2023-04-09T18:11:15.644Z,55.00
2023-04-09T18:13:43.959Z,54.70
2023-04-09T18:16:12.797Z,54.30
2023-04-09T18:18:41.417Z,54.40
2023-04-09T18:21:12.980Z,54.70
2023-04-09T18:23:42.739Z,55.80
2023-04-09T18:26:11.246Z,55.60
2023-04-09T18:28:39.557Z,55.30
2023-04-09T18:31:07.900Z,55.90
2023-04-09T18:33:36.418Z,55.80
2023-04-09T18:36:05.501Z,56.00
2023-04-09T18:38:34.721Z,56.70
2023-04-09T18:41:04.594Z,56.20
2023-04-09T18:43:32.998Z,56.80
2023-04-09T18:46:01.412Z,57.40
2023-04-09T18:48:29.697Z,57.10
2023-04-09T18:50:59.028Z,57.80
2023-04-09T18:53:27.891Z,57.60
2023-04-09T18:55:56.605Z,57.80
2023-04-09T18:58:26.909Z,58.30
2023-04-09T19:00:55.409Z,58.50
2023-04-09T19:03:24.067Z,58.30
2023-04-09T19:05:53.257Z,58.70
2023-04-09T19:08:21.560Z,58.80
2023-04-09T19:10:49.808Z,58.60
2023-04-09T19:13:18.249Z,60.10
2023-04-09T19:15:47.967Z,59.30
2023-04-09T19:18:17.102Z,60.20
2023-04-09T19:20:45.591Z,61.10
2023-04-09T19:23:14.061Z,61.20
2023-04-09T19:25:42.931Z,61.40
2023-04-09T19:28:11.542Z,62.10
2023-04-09T19:30:39.838Z,61.50
2023-04-09T19:33:09.656Z,61.60
2023-04-09T19:35:40.667Z,61.70
2023-04-09T19:38:08.973Z,61.80
2023-04-09T19:40:37.328Z,62.10
2023-04-09T19:43:05.675Z,61.50
2023-04-09T19:45:34.053Z,62.20
2023-04-09T19:48:02.449Z,62.30
2023-04-09T19:50:32.285Z,61.30
2023-04-09T19:53:00.569Z,61.00
2023-04-09T19:55:29.113Z,61.50
2023-04-09T19:57:57.439Z,61.60
2023-04-09T20:00:26.466Z,61.50
2023-04-09T20:02:54.939Z,61.50
2023-04-09T20:05:23.496Z,61.70
2023-04-09T20:07:53.628Z,61.50
2023-04-09T20:10:21.985Z,61.90
2023-04-09T20:12:51.519Z,61.70
2023-04-09T20:15:21.051Z,62.10
2023-04-09T20:17:49.586Z,62.00
2023-04-09T20:20:20.086Z,61.70
2023-04-09T20:22:55.634Z,61.50
2023-04-09T20:25:26.125Z,61.60
2023-04-09T20:27:55.027Z,61.20
2023-04-09T20:30:23.594Z,61.50
2023-04-09T20:32:52.009Z,61.20
2023-04-09T20:35:20.907Z,61.30
2023-04-09T20:37:49.946Z,61.80
2023-04-09T20:40:18.325Z,61.80
2023-04-09T20:42:48.125Z,61.60
2023-04-09T20:45:16.836Z,61.80
2023-04-09T20:47:45.346Z,62.30
2023-04-09T20:50:13.935Z,62.10
2023-04-09T20:52:43.246Z,62.20
2023-04-09T20:55:11.503Z,62.40
2023-04-09T20:57:39.770Z,62.50
2023-04-09T21:00:11.263Z,62.60
2023-04-09T21:02:41.165Z,63.10
2023-04-09T21:05:21.746Z,62.80
2023-04-09T21:07:50.810Z,62.70
2023-04-09T21:10:19.347Z,62.80
2023-04-09T21:12:47.615Z,63.00
2023-04-09T21:15:17.712Z,63.00
2023-04-09T21:17:46.321Z,62.90
2023-04-09T21:20:16.564Z,62.90
2023-04-09T21:22:44.888Z,63.20
2023-04-09T21:25:15.257Z,62.80
2023-04-09T21:27:43.938Z,63.00
2023-04-09T21:30:13.310Z,63.30
2023-04-09T21:32:43.020Z,63.10
2023-04-09T21:35:11.780Z,63.60
2023-04-09T21:37:40.151Z,63.30
2023-04-09T21:40:10.354Z,63.20
2023-04-09T21:42:38.631Z,63.50
2023-04-09T21:45:08.059Z,63.80
2023-04-09T21:47:36.466Z,63.80
2023-04-09T21:50:07.481Z,63.40
2023-04-09T21:52:35.798Z,63.60
2023-04-09T21:55:04.160Z,63.80
2023-04-09T21:57:32.415Z,63.80
2023-04-09T22:00:00.750Z,64.30
2023-04-09T22:02:29.222Z,64.60
2023-04-09T22:04:59.825Z,64.80
2023-04-09T22:07:29.691Z,64.70
2023-04-09T22:09:58.784Z,65.00
2023-04-09T22:12:27.321Z,64.60
2023-04-09T22:14:56.169Z,64.90
2023-04-09T22:17:24.567Z,64.90
2023-04-09T22:19:52.858Z,65.00
2023-04-09T22:22:21.203Z,65.30
2023-04-09T22:24:50.805Z,65.00
2023-04-09T22:27:19.034Z,65.30
2023-04-09T22:29:47.284Z,65.40
2023-04-09T22:32:15.966Z,65.40
2023-04-09T22:34:44.193Z,65.50
2023-04-09T22:37:12.446Z,66.00
2023-04-09T22:39:40.912Z,65.60
2023-04-09T22:42:10.608Z,66.20
2023-04-09T22:44:39.705Z,66.30
2023-04-09T22:47:07.970Z,66.40
2023-04-09T22:49:36.285Z,66.70
2023-04-09T22:52:05.619Z,66.50
2023-04-09T22:54:34.144Z,66.50
2023-04-09T22:57:03.110Z,66.80
2023-04-09T22:59:39.869Z,66.80
2023-04-09T23:02:09.339Z,66.90
2023-04-09T23:04:37.815Z,67.10
2023-04-09T23:07:06.204Z,67.10
2023-04-09T23:09:34.531Z,67.00
2023-04-09T23:12:03.294Z,67.10
2023-04-09T23:14:32.875Z,67.30
2023-04-09T23:17:01.134Z,66.90
2023-04-09T23:19:29.375Z,67.10
2023-04-09T23:21:57.630Z,67.10
2023-04-09T23:24:25.890Z,67.50
2023-04-09T23:26:54.190Z,67.50
2023-04-09T23:29:22.487Z,68.10
2023-04-09T23:31:52.131Z,68.20
2023-04-09T23:34:20.859Z,68.20
2023-04-09T23:36:49.109Z,68.40
2023-04-09T23:39:17.422Z,68.50
2023-04-09T23:41:45.852Z,68.60
2023-04-09T23:44:14.123Z,68.10
2023-04-09T23:46:42.551Z,68.40
2023-04-09T23:49:12.325Z,68.50
2023-04-09T23:51:40.640Z,68.60
2023-04-09T23:54:08.971Z,68.60
2023-04-09T23:56:37.548Z,68.40
2023-04-09T23:59:05.878Z,68.50
